sensor_id;sensor_type;location;lat;lon;timestamp;pressure;altitude;pressure_sealevel;temperature;humidity
51245;BME280;37840;47.562;18.738;2024-03-02T00:01:14;99073.59;;;10.85;90.26
51245;BME280;37840;47.562;18.738;2024-03-02T00:03:42;99073.00;;;10.81;90.40
51245;BME280;37840;47.562;18.738;2024-03-02T00:06:09;99068.94;;;10.77;90.58
51245;BME280;37840;47.562;18.738;2024-03-02T00:08:35;99060.22;;;10.75;91.21
51245;BME280;37840;47.562;18.738;2024-03-02T00:11:02;99070.16;;;10.73;90.75
51245;BME280;37840;47.562;18.738;2024-03-02T00:13:31;99063.25;;;10.71;90.97
51245;BME280;37840;47.562;18.738;2024-03-02T00:15:58;99070.87;;;10.64;89.36
51245;BME280;37840;47.562;18.738;2024-03-02T00:18:26;99071.28;;;10.59;89.70
51245;BME280;37840;47.562;18.738;2024-03-02T00:20:54;99060.19;;;10.54;89.92
51245;BME280;37840;47.562;18.738;2024-03-02T00:23:21;99061.84;;;10.55;90.54
51245;BME280;37840;47.562;18.738;2024-03-02T00:25:52;99048.81;;;10.52;89.50
51245;BME280;37840;47.562;18.738;2024-03-02T00:28:28;99048.09;;;10.50;90.32
51245;BME280;37840;47.562;18.738;2024-03-02T00:33:26;99050.06;;;10.48;91.02
51245;BME280;37840;47.562;18.738;2024-03-02T00:35:52;99043.75;;;10.49;91.21
51245;BME280;37840;47.562;18.738;2024-03-02T00:38:19;99040.25;;;10.49;91.24
51245;BME280;37840;47.562;18.738;2024-03-02T00:40:45;99047.13;;;10.51;91.12
51245;BME280;37840;47.562;18.738;2024-03-02T00:45:49;99056.31;;;10.47;91.62
51245;BME280;37840;47.562;18.738;2024-03-02T00:48:16;99052.94;;;10.45;92.03
51245;BME280;37840;47.562;18.738;2024-03-02T00:50:42;99054.75;;;10.45;91.69
51245;BME280;37840;47.562;18.738;2024-03-02T00:53:12;99055.47;;;10.47;91.70
51245;BME280;37840;47.562;18.738;2024-03-02T00:55:38;99052.22;;;10.43;91.21
51245;BME280;37840;47.562;18.738;2024-03-02T00:58:09;99053.19;;;10.42;91.17
51245;BME280;37840;47.562;18.738;2024-03-02T01:00:35;99051.38;;;10.43;91.17
51245;BME280;37840;47.562;18.738;2024-03-02T01:03:01;99049.72;;;10.42;91.33
51245;BME280;37840;47.562;18.738;2024-03-02T01:05:27;99056.97;;;10.39;90.99
51245;BME280;37840;47.562;18.738;2024-03-02T01:07:53;99049.38;;;10.12;92.59
51245;BME280;37840;47.562;18.738;2024-03-02T01:10:19;99046.97;;;9.87;94.38
51245;BME280;37840;47.562;18.738;2024-03-02T01:12:46;99051.66;;;9.94;94.38
51245;BME280;37840;47.562;18.738;2024-03-02T01:15:12;99051.06;;;10.02;93.91
51245;BME280;37840;47.562;18.738;2024-03-02T01:17:37;99053.25;;;10.08;93.56
51245;BME280;37840;47.562;18.738;2024-03-02T01:20:04;99047.56;;;10.13;93.21
51245;BME280;37840;47.562;18.738;2024-03-02T01:22:30;99042.72;;;10.18;93.11
51245;BME280;37840;47.562;18.738;2024-03-02T01:24:56;99050.44;;;10.21;92.76
51245;BME280;37840;47.562;18.738;2024-03-02T01:27:22;99049.38;;;10.12;91.95
51245;BME280;37840;47.562;18.738;2024-03-02T01:29:47;99045.88;;;10.12;92.62
51245;BME280;37840;47.562;18.738;2024-03-02T01:32:13;99047.44;;;10.14;92.13
51245;BME280;37840;47.562;18.738;2024-03-02T01:34:39;99034.16;;;10.14;92.80
51245;BME280;37840;47.562;18.738;2024-03-02T01:37:05;99035.59;;;10.18;93.02
51245;BME280;37840;47.562;18.738;2024-03-02T01:39:31;99024.69;;;10.21;92.73
51245;BME280;37840;47.562;18.738;2024-03-02T01:41:57;99030.84;;;10.22;92.56
51245;BME280;37840;47.562;18.738;2024-03-02T01:44:23;99031.00;;;10.20;92.69
51245;BME280;37840;47.562;18.738;2024-03-02T01:46:49;99034.63;;;10.19;92.37
51245;BME280;37840;47.562;18.738;2024-03-02T01:49:16;99027.63;;;10.18;92.62
51245;BME280;37840;47.562;18.738;2024-03-02T01:51:42;99029.28;;;10.19;92.24
51245;BME280;37840;47.562;18.738;2024-03-02T01:54:08;99034.63;;;10.19;92.59
51245;BME280;37840;47.562;18.738;2024-03-02T01:56:34;99029.44;;;10.18;92.26
51245;BME280;37840;47.562;18.738;2024-03-02T01:59:00;99031.97;;;10.19;92.48
51245;BME280;37840;47.562;18.738;2024-03-02T02:01:26;99033.78;;;10.19;91.74
51245;BME280;37840;47.562;18.738;2024-03-02T02:03:52;99028.47;;;10.19;92.01
51245;BME280;37840;47.562;18.738;2024-03-02T02:06:18;99031.22;;;10.17;91.72
51245;BME280;37840;47.562;18.738;2024-03-02T02:08:44;99029.28;;;10.19;91.67
51245;BME280;37840;47.562;18.738;2024-03-02T02:11:11;99032.09;;;10.18;91.54
51245;BME280;37840;47.562;18.738;2024-03-02T02:13:39;99025.91;;;10.17;91.11
51245;BME280;37840;47.562;18.738;2024-03-02T02:16:06;99031.13;;;10.19;91.08
51245;BME280;37840;47.562;18.738;2024-03-02T02:18:33;99025.69;;;10.20;90.99
51245;BME280;37840;47.562;18.738;2024-03-02T02:20:58;99036.16;;;10.22;91.40
51245;BME280;37840;47.562;18.738;2024-03-02T02:23:24;99046.94;;;10.20;91.62
51245;BME280;37840;47.562;18.738;2024-03-02T02:25:50;99057.81;;;10.17;91.65
51245;BME280;37840;47.562;18.738;2024-03-02T02:28:16;99065.91;;;10.05;92.39
51245;BME280;37840;47.562;18.738;2024-03-02T02:30:42;99062.44;;;9.70;94.39
51245;BME280;37840;47.562;18.738;2024-03-02T02:33:09;99063.25;;;9.59;96.12
51245;BME280;37840;47.562;18.738;2024-03-02T02:35:34;99074.47;;;9.41;97.47
51245;BME280;37840;47.562;18.738;2024-03-02T02:38:01;99067.78;;;9.12;100.00
51245;BME280;37840;47.562;18.738;2024-03-02T02:40:28;99077.66;;;9.10;100.00
51245;BME280;37840;47.562;18.738;2024-03-02T02:42:57;99073.19;;;9.11;100.00
51245;BME280;37840;47.562;18.738;2024-03-02T02:45:25;99081.03;;;9.12;100.00
51245;BME280;37840;47.562;18.738;2024-03-02T02:47:51;99080.56;;;9.18;100.00
51245;BME280;37840;47.562;18.738;2024-03-02T02:50:17;99079.25;;;9.24;100.00
51245;BME280;37840;47.562;18.738;2024-03-02T02:52:43;99076.25;;;9.29;100.00
51245;BME280;37840;47.562;18.738;2024-03-02T02:55:10;99070.59;;;9.33;99.55
51245;BME280;37840;47.562;18.738;2024-03-02T02:57:37;99070.72;;;9.43;99.20
51245;BME280;37840;47.562;18.738;2024-03-02T03:00:09;99076.53;;;9.48;98.35
51245;BME280;37840;47.562;18.738;2024-03-02T03:02:38;99066.28;;;9.55;97.89
51245;BME280;37840;47.562;18.738;2024-03-02T03:05:09;99061.22;;;9.63;97.29
51245;BME280;37840;47.562;18.738;2024-03-02T03:07:35;99060.50;;;9.72;96.67
51245;BME280;37840;47.562;18.738;2024-03-02T03:10:03;99064.34;;;9.79;95.71
51245;BME280;37840;47.562;18.738;2024-03-02T03:12:30;99061.34;;;9.84;95.13
51245;BME280;37840;47.562;18.738;2024-03-02T03:14:57;99058.22;;;9.90;94.48
51245;BME280;37840;47.562;18.738;2024-03-02T03:17:23;99063.16;;;9.95;94.04
51245;BME280;37840;47.562;18.738;2024-03-02T03:19:50;99059.53;;;9.96;93.68
51245;BME280;37840;47.562;18.738;2024-03-02T03:22:16;99065.09;;;9.93;93.64
51245;BME280;37840;47.562;18.738;2024-03-02T03:24:42;99066.88;;;9.92;93.58
51245;BME280;37840;47.562;18.738;2024-03-02T03:27:09;99057.97;;;9.93;93.44
51245;BME280;37840;47.562;18.738;2024-03-02T03:29:36;99061.81;;;9.89;93.16
51245;BME280;37840;47.562;18.738;2024-03-02T03:32:02;99066.78;;;9.83;93.32
51245;BME280;37840;47.562;18.738;2024-03-02T03:34:29;99067.50;;;9.73;94.18
51245;BME280;37840;47.562;18.738;2024-03-02T03:36:55;99060.25;;;9.64;94.87
51245;BME280;37840;47.562;18.738;2024-03-02T03:39:20;99061.09;;;9.65;95.00
51245;BME280;37840;47.562;18.738;2024-03-02T03:41:46;99064.34;;;9.68;94.61
51245;BME280;37840;47.562;18.738;2024-03-02T03:44:12;99069.44;;;9.71;93.60
51245;BME280;37840;47.562;18.738;2024-03-02T03:46:38;99063.75;;;9.76;93.00
51245;BME280;37840;47.562;18.738;2024-03-02T03:49:04;99070.03;;;9.75;91.44
51245;BME280;37840;47.562;18.738;2024-03-02T03:51:30;99061.59;;;9.70;91.61
51245;BME280;37840;47.562;18.738;2024-03-02T03:53:56;99069.78;;;9.67;92.23
51245;BME280;37840;47.562;18.738;2024-03-02T03:56:22;99061.47;;;9.71;91.83
51245;BME280;37840;47.562;18.738;2024-03-02T03:58:48;99069.31;;;9.62;92.24
51245;BME280;37840;47.562;18.738;2024-03-02T04:01:14;99074.25;;;9.66;91.92
51245;BME280;37840;47.562;18.738;2024-03-02T04:03:40;99061.47;;;9.71;91.65
51245;BME280;37840;47.562;18.738;2024-03-02T04:06:06;99062.78;;;9.77;91.21
51245;BME280;37840;47.562;18.738;2024-03-02T04:08:32;99067.25;;;9.76;90.27
51245;BME280;37840;47.562;18.738;2024-03-02T04:10:58;99065.44;;;9.77;90.34
51245;BME280;37840;47.562;18.738;2024-03-02T04:13:23;99073.28;;;9.78;90.89
51245;BME280;37840;47.562;18.738;2024-03-02T04:15:49;99074.97;;;9.79;90.68
51245;BME280;37840;47.562;18.738;2024-03-02T04:18:15;99080.16;;;9.81;90.23
51245;BME280;37840;47.562;18.738;2024-03-02T04:20:41;99077.75;;;9.78;90.26
51245;BME280;37840;47.562;18.738;2024-03-02T04:23:07;99081.00;;;9.59;91.52
51245;BME280;37840;47.562;18.738;2024-03-02T04:25:33;99082.94;;;9.46;92.69
51245;BME280;37840;47.562;18.738;2024-03-02T04:27:59;99091.00;;;9.33;93.70
51245;BME280;37840;47.562;18.738;2024-03-02T04:30:25;99097.94;;;9.23;94.73
51245;BME280;37840;47.562;18.738;2024-03-02T04:32:51;99101.06;;;9.16;95.70
51245;BME280;37840;47.562;18.738;2024-03-02T04:35:17;99104.09;;;9.23;96.13
51245;BME280;37840;47.562;18.738;2024-03-02T04:37:43;99098.22;;;9.31;95.65
51245;BME280;37840;47.562;18.738;2024-03-02T04:40:10;99099.00;;;9.20;96.47
51245;BME280;37840;47.562;18.738;2024-03-02T04:42:36;99098.31;;;9.18;97.76
51245;BME280;37840;47.562;18.738;2024-03-02T04:45:04;99099.41;;;9.27;97.45
51245;BME280;37840;47.562;18.738;2024-03-02T04:47:30;99099.78;;;9.33;97.85
51245;BME280;37840;47.562;18.738;2024-03-02T04:49:56;99109.03;;;9.16;99.77
51245;BME280;37840;47.562;18.738;2024-03-02T04:52:22;99107.91;;;9.08;100.00
51245;BME280;37840;47.562;18.738;2024-03-02T04:54:48;99113.44;;;9.05;100.00
51245;BME280;37840;47.562;18.738;2024-03-02T04:57:32;99110.91;;;9.03;100.00
51245;BME280;37840;47.562;18.738;2024-03-02T04:59:58;99111.81;;;8.91;100.00
51245;BME280;37840;47.562;18.738;2024-03-02T05:02:24;99112.75;;;8.90;100.00
51245;BME280;37840;47.562;18.738;2024-03-02T05:04:50;99116.37;;;8.89;100.00
51245;BME280;37840;47.562;18.738;2024-03-02T05:07:17;99113.22;;;8.84;100.00
51245;BME280;37840;47.562;18.738;2024-03-02T05:09:43;99123.31;;;8.78;100.00
51245;BME280;37840;47.562;18.738;2024-03-02T05:12:09;99114.16;;;8.71;100.00
51245;BME280;37840;47.562;18.738;2024-03-02T05:14:55;99117.97;;;8.67;100.00
51245;BME280;37840;47.562;18.738;2024-03-02T05:17:21;99119.25;;;8.62;100.00
51245;BME280;37840;47.562;18.738;2024-03-02T05:19:47;99124.91;;;8.57;100.00
51245;BME280;37840;47.562;18.738;2024-03-02T05:22:13;99123.44;;;8.53;100.00
51245;BME280;37840;47.562;18.738;2024-03-02T05:24:39;99123.31;;;8.54;100.00
51245;BME280;37840;47.562;18.738;2024-03-02T05:27:05;99121.62;;;8.53;100.00
51245;BME280;37840;47.562;18.738;2024-03-02T05:29:33;99130.75;;;8.49;100.00
51245;BME280;37840;47.562;18.738;2024-03-02T05:31:59;99129.06;;;8.48;100.00
51245;BME280;37840;47.562;18.738;2024-03-02T05:34:24;99126.63;;;8.45;100.00
51245;BME280;37840;47.562;18.738;2024-03-02T05:36:50;99129.50;;;8.42;100.00
51245;BME280;37840;47.562;18.738;2024-03-02T05:39:16;99132.66;;;8.47;100.00
51245;BME280;37840;47.562;18.738;2024-03-02T05:41:42;99132.31;;;8.52;100.00
51245;BME280;37840;47.562;18.738;2024-03-02T05:44:08;99131.47;;;8.51;100.00
51245;BME280;37840;47.562;18.738;2024-03-02T05:46:34;99125.09;;;8.54;100.00
51245;BME280;37840;47.562;18.738;2024-03-02T05:49:00;99126.19;;;8.51;100.00
51245;BME280;37840;47.562;18.738;2024-03-02T05:51:26;99124.25;;;8.53;100.00
51245;BME280;37840;47.562;18.738;2024-03-02T05:53:52;99125.41;;;8.62;100.00
51245;BME280;37840;47.562;18.738;2024-03-02T05:56:18;99135.91;;;8.64;100.00
51245;BME280;37840;47.562;18.738;2024-03-02T05:58:44;99130.66;;;8.75;100.00
51245;BME280;37840;47.562;18.738;2024-03-02T06:01:33;99126.25;;;8.87;100.00
51245;BME280;37840;47.562;18.738;2024-03-02T06:03:59;99121.84;;;8.98;100.00
51245;BME280;37840;47.562;18.738;2024-03-02T06:06:25;99124.66;;;9.08;100.00
51245;BME280;37840;47.562;18.738;2024-03-02T06:08:52;99127.69;;;9.15;100.00
51245;BME280;37840;47.562;18.738;2024-03-02T06:11:21;99125.41;;;9.22;100.00
51245;BME280;37840;47.562;18.738;2024-03-02T06:13:47;99125.81;;;9.28;100.00
51245;BME280;37840;47.562;18.738;2024-03-02T06:16:13;99121.12;;;9.32;100.00
51245;BME280;37840;47.562;18.738;2024-03-02T06:18:39;99122.47;;;9.37;100.00
51245;BME280;37840;47.562;18.738;2024-03-02T06:21:05;99119.69;;;9.39;100.00
51245;BME280;37840;47.562;18.738;2024-03-02T06:23:31;99133.56;;;9.43;100.00
51245;BME280;37840;47.562;18.738;2024-03-02T06:25:57;99135.13;;;9.45;100.00
51245;BME280;37840;47.562;18.738;2024-03-02T06:28:23;99138.03;;;9.42;100.00
51245;BME280;37840;47.562;18.738;2024-03-02T06:30:49;99142.63;;;9.40;100.00
51245;BME280;37840;47.562;18.738;2024-03-02T06:33:15;99145.47;;;9.37;100.00
51245;BME280;37840;47.562;18.738;2024-03-02T06:35:41;99154.06;;;9.41;100.00
51245;BME280;37840;47.562;18.738;2024-03-02T06:38:07;99151.88;;;9.34;100.00
51245;BME280;37840;47.562;18.738;2024-03-02T06:40:33;99161.53;;;9.35;100.00
51245;BME280;37840;47.562;18.738;2024-03-02T06:42:59;99163.13;;;9.38;100.00
51245;BME280;37840;47.562;18.738;2024-03-02T06:45:25;99164.56;;;9.42;100.00
51245;BME280;37840;47.562;18.738;2024-03-02T06:47:51;99168.81;;;9.45;100.00
51245;BME280;37840;47.562;18.738;2024-03-02T06:50:17;99163.37;;;9.46;100.00
51245;BME280;37840;47.562;18.738;2024-03-02T06:52:43;99165.91;;;9.48;100.00
51245;BME280;37840;47.562;18.738;2024-03-02T06:55:09;99165.78;;;9.49;100.00
51245;BME280;37840;47.562;18.738;2024-03-02T06:57:35;99164.19;;;9.35;100.00
51245;BME280;37840;47.562;18.738;2024-03-02T07:00:01;99165.22;;;9.22;100.00
51245;BME280;37840;47.562;18.738;2024-03-02T07:02:30;99167.88;;;9.22;100.00
51245;BME280;37840;47.562;18.738;2024-03-02T07:04:56;99162.34;;;9.25;100.00
51245;BME280;37840;47.562;18.738;2024-03-02T07:07:22;99171.03;;;9.27;100.00
51245;BME280;37840;47.562;18.738;2024-03-02T07:09:48;99165.00;;;9.25;100.00
51245;BME280;37840;47.562;18.738;2024-03-02T07:12:14;99180.53;;;9.18;100.00
51245;BME280;37840;47.562;18.738;2024-03-02T07:14:40;99177.53;;;9.23;100.00
51245;BME280;37840;47.562;18.738;2024-03-02T07:17:37;99172.81;;;9.26;100.00
51245;BME280;37840;47.562;18.738;2024-03-02T07:20:03;99175.81;;;9.22;100.00
51245;BME280;37840;47.562;18.738;2024-03-02T07:22:29;99166.56;;;9.27;100.00
51245;BME280;37840;47.562;18.738;2024-03-02T07:24:55;99177.66;;;9.21;100.00
51245;BME280;37840;47.562;18.738;2024-03-02T07:27:21;99172.22;;;9.23;100.00
51245;BME280;37840;47.562;18.738;2024-03-02T07:29:47;99175.38;;;9.28;100.00
51245;BME280;37840;47.562;18.738;2024-03-02T07:32:13;99182.25;;;9.30;100.00
51245;BME280;37840;47.562;18.738;2024-03-02T07:34:39;99170.44;;;9.34;100.00
51245;BME280;37840;47.562;18.738;2024-03-02T07:37:05;99174.47;;;9.40;100.00
51245;BME280;37840;47.562;18.738;2024-03-02T07:39:32;99174.56;;;9.38;100.00
51245;BME280;37840;47.562;18.738;2024-03-02T07:41:58;99182.91;;;9.45;100.00
51245;BME280;37840;47.562;18.738;2024-03-02T07:44:23;99178.94;;;9.51;100.00
51245;BME280;37840;47.562;18.738;2024-03-02T07:46:50;99183.25;;;9.41;100.00
51245;BME280;37840;47.562;18.738;2024-03-02T07:49:16;99181.97;;;9.46;100.00
51245;BME280;37840;47.562;18.738;2024-03-02T07:51:42;99187.53;;;9.54;100.00
51245;BME280;37840;47.562;18.738;2024-03-02T07:54:08;99179.69;;;9.53;100.00
51245;BME280;37840;47.562;18.738;2024-03-02T07:56:34;99180.91;;;9.60;100.00
51245;BME280;37840;47.562;18.738;2024-03-02T07:59:01;99183.34;;;9.63;100.00
51245;BME280;37840;47.562;18.738;2024-03-02T08:01:28;99189.12;;;9.68;100.00
51245;BME280;37840;47.562;18.738;2024-03-02T08:03:57;99182.50;;;9.74;100.00
51245;BME280;37840;47.562;18.738;2024-03-02T08:06:27;99178.87;;;9.75;100.00
51245;BME280;37840;47.562;18.738;2024-03-02T08:08:58;99192.03;;;9.65;100.00
51245;BME280;37840;47.562;18.738;2024-03-02T08:11:24;99188.03;;;9.59;100.00
51245;BME280;37840;47.562;18.738;2024-03-02T08:13:50;99193.16;;;9.50;100.00
51245;BME280;37840;47.562;18.738;2024-03-02T08:16:18;99195.09;;;9.48;100.00
51245;BME280;37840;47.562;18.738;2024-03-02T08:18:48;99196.41;;;9.42;100.00
51245;BME280;37840;47.562;18.738;2024-03-02T08:21:14;99197.38;;;9.41;100.00
51245;BME280;37840;47.562;18.738;2024-03-02T08:23:40;99199.78;;;9.33;100.00
51245;BME280;37840;47.562;18.738;2024-03-02T08:26:08;99198.16;;;9.30;100.00
51245;BME280;37840;47.562;18.738;2024-03-02T08:28:35;99204.56;;;9.28;100.00
51245;BME280;37840;47.562;18.738;2024-03-02T08:31:05;99201.06;;;9.27;100.00
51245;BME280;37840;47.562;18.738;2024-03-02T08:33:31;99199.25;;;9.28;100.00
51245;BME280;37840;47.562;18.738;2024-03-02T08:35:57;99203.81;;;9.26;100.00
51245;BME280;37840;47.562;18.738;2024-03-02T08:38:25;99209.47;;;9.21;100.00
51245;BME280;37840;47.562;18.738;2024-03-02T08:40:51;99210.41;;;9.20;100.00
51245;BME280;37840;47.562;18.738;2024-03-02T08:43:17;99204.62;;;9.15;100.00
51245;BME280;37840;47.562;18.738;2024-03-02T08:45:44;99203.38;;;9.08;100.00
51245;BME280;37840;47.562;18.738;2024-03-02T08:48:11;99200.59;;;9.09;100.00
51245;BME280;37840;47.562;18.738;2024-03-02T08:50:36;99202.22;;;9.12;100.00
51245;BME280;37840;47.562;18.738;2024-03-02T08:53:06;99193.56;;;9.21;100.00
51245;BME280;37840;47.562;18.738;2024-03-02T08:55:32;99202.28;;;9.34;100.00
51245;BME280;37840;47.562;18.738;2024-03-02T08:57:58;99197.16;;;9.44;100.00
51245;BME280;37840;47.562;18.738;2024-03-02T09:00:24;99204.53;;;9.52;100.00
51245;BME280;37840;47.562;18.738;2024-03-02T09:02:50;99205.78;;;9.59;100.00
51245;BME280;37840;47.562;18.738;2024-03-02T09:05:16;99207.09;;;9.65;100.00
51245;BME280;37840;47.562;18.738;2024-03-02T09:07:42;99204.88;;;9.47;100.00
51245;BME280;37840;47.562;18.738;2024-03-02T09:10:08;99210.63;;;9.41;100.00
51245;BME280;37840;47.562;18.738;2024-03-02T09:12:38;99213.28;;;9.41;100.00
51245;BME280;37840;47.562;18.738;2024-03-02T09:15:05;99211.16;;;9.22;100.00
51245;BME280;37840;47.562;18.738;2024-03-02T09:17:31;99212.47;;;9.16;100.00
51245;BME280;37840;47.562;18.738;2024-03-02T09:19:57;99208.13;;;9.15;100.00
51245;BME280;37840;47.562;18.738;2024-03-02T09:22:23;99216.66;;;9.08;100.00
51245;BME280;37840;47.562;18.738;2024-03-02T09:24:52;99213.03;;;9.09;100.00
51245;BME280;37840;47.562;18.738;2024-03-02T09:27:18;99216.41;;;9.11;100.00
51245;BME280;37840;47.562;18.738;2024-03-02T09:29:43;99210.16;;;9.12;100.00
51245;BME280;37840;47.562;18.738;2024-03-02T09:32:13;99212.56;;;9.15;100.00
51245;BME280;37840;47.562;18.738;2024-03-02T09:34:40;99213.66;;;9.12;100.00
51245;BME280;37840;47.562;18.738;2024-03-02T09:37:06;99209.81;;;9.16;100.00
51245;BME280;37840;47.562;18.738;2024-03-02T09:39:32;99209.81;;;9.16;100.00
51245;BME280;37840;47.562;18.738;2024-03-02T09:41:59;99210.22;;;9.23;100.00
51245;BME280;37840;47.562;18.738;2024-03-02T09:44:25;99218.00;;;9.13;100.00
51245;BME280;37840;47.562;18.738;2024-03-02T09:46:52;99214.59;;;9.11;100.00
51245;BME280;37840;47.562;18.738;2024-03-02T09:49:18;99220.53;;;9.15;100.00
51245;BME280;37840;47.562;18.738;2024-03-02T09:51:48;99220.78;;;9.12;100.00
51245;BME280;37840;47.562;18.738;2024-03-02T09:54:17;99210.16;;;9.12;100.00
51245;BME280;37840;47.562;18.738;2024-03-02T09:56:46;99214.38;;;9.14;100.00
51245;BME280;37840;47.562;18.738;2024-03-02T09:59:12;99209.09;;;9.14;100.00
51245;BME280;37840;47.562;18.738;2024-03-02T10:01:57;99210.91;;;9.14;100.00
51245;BME280;37840;47.562;18.738;2024-03-02T10:04:25;99208.00;;;9.17;100.00
51245;BME280;37840;47.562;18.738;2024-03-02T10:07:12;99215.13;;;9.16;100.00
51245;BME280;37840;47.562;18.738;2024-03-02T10:09:39;99208.47;;;9.11;100.00
51245;BME280;37840;47.562;18.738;2024-03-02T10:12:06;99209.44;;;9.10;100.00
51245;BME280;37840;47.562;18.738;2024-03-02T10:14:33;99210.09;;;9.01;100.00
51245;BME280;37840;47.562;18.738;2024-03-02T10:17:06;99215.00;;;8.94;100.00
51245;BME280;37840;47.562;18.738;2024-03-02T10:19:33;99216.63;;;8.84;100.00
51245;BME280;37840;47.562;18.738;2024-03-02T10:22:01;99210.72;;;8.80;100.00
51245;BME280;37840;47.562;18.738;2024-03-02T10:24:38;99211.88;;;8.76;100.00
51245;BME280;37840;47.562;18.738;2024-03-02T10:27:09;99218.16;;;8.62;100.00
51245;BME280;37840;47.562;18.738;2024-03-02T10:29:39;99215.94;;;8.56;100.00
51245;BME280;37840;47.562;18.738;2024-03-02T10:32:09;99206.66;;;8.50;100.00
51245;BME280;37840;47.562;18.738;2024-03-02T10:34:36;99214.47;;;8.52;100.00
51245;BME280;37840;47.562;18.738;2024-03-02T10:37:02;99215.09;;;8.55;100.00
51245;BME280;37840;47.562;18.738;2024-03-02T10:39:30;99214.38;;;8.53;100.00
51245;BME280;37840;47.562;18.738;2024-03-02T10:41:57;99211.50;;;8.56;100.00
51245;BME280;37840;47.562;18.738;2024-03-02T10:44:25;99209.59;;;8.59;100.00
51245;BME280;37840;47.562;18.738;2024-03-02T10:46:55;99214.03;;;8.58;100.00
51245;BME280;37840;47.562;18.738;2024-03-02T10:49:22;99209.47;;;8.60;100.00
51245;BME280;37840;47.562;18.738;2024-03-02T10:51:51;99203.97;;;8.63;100.00
51245;BME280;37840;47.562;18.738;2024-03-02T10:54:17;99208.09;;;8.67;100.00
51245;BME280;37840;47.562;18.738;2024-03-02T10:56:44;99206.06;;;8.71;100.00
51245;BME280;37840;47.562;18.738;2024-03-02T10:59:28;99204.03;;;8.74;100.00
51245;BME280;37840;47.562;18.738;2024-03-02T11:02:00;99202.34;;;8.73;100.00
51245;BME280;37840;47.562;18.738;2024-03-02T11:04:30;99199.22;;;8.80;100.00
51245;BME280;37840;47.562;18.738;2024-03-02T11:07:03;99203.59;;;8.81;100.00
51245;BME280;37840;47.562;18.738;2024-03-02T11:09:33;99206.16;;;8.82;100.00
51245;BME280;37840;47.562;18.738;2024-03-02T11:14:40;99202.13;;;8.76;100.00
51245;BME280;37840;47.562;18.738;2024-03-02T11:17:08;99204.78;;;8.76;100.00
51245;BME280;37840;47.562;18.738;2024-03-02T11:19:35;99201.28;;;8.76;100.00
51245;BME280;37840;47.562;18.738;2024-03-02T11:22:04;99198.22;;;8.69;100.00
51245;BME280;37840;47.562;18.738;2024-03-02T11:24:31;99194.41;;;8.73;100.00
51245;BME280;37840;47.562;18.738;2024-03-02T11:27:07;99195.09;;;8.75;100.00
51245;BME280;37840;47.562;18.738;2024-03-02T11:32:22;99189.25;;;8.83;100.00
51245;BME280;37840;47.562;18.738;2024-03-02T11:34:51;99190.09;;;8.84;100.00
51245;BME280;37840;47.562;18.738;2024-03-02T11:37:20;99187.34;;;8.85;100.00
51245;BME280;37840;47.562;18.738;2024-03-02T11:39:49;99188.31;;;8.84;100.00
51245;BME280;37840;47.562;18.738;2024-03-02T11:42:16;99186.28;;;8.88;100.00
51245;BME280;37840;47.562;18.738;2024-03-02T11:44:45;99177.25;;;8.90;100.00
51245;BME280;37840;47.562;18.738;2024-03-02T11:47:13;99185.94;;;8.92;100.00
51245;BME280;37840;47.562;18.738;2024-03-02T11:49:48;99184.97;;;8.93;100.00
51245;BME280;37840;47.562;18.738;2024-03-02T11:52:15;99183.06;;;8.95;100.00
51245;BME280;37840;47.562;18.738;2024-03-02T11:54:47;99181.06;;;8.99;100.00
51245;BME280;37840;47.562;18.738;2024-03-02T11:57:15;99183.34;;;9.04;100.00
51245;BME280;37840;47.562;18.738;2024-03-02T11:59:42;99179.53;;;9.08;100.00
51245;BME280;37840;47.562;18.738;2024-03-02T12:02:21;99179.91;;;9.14;100.00
51245;BME280;37840;47.562;18.738;2024-03-02T12:04:48;99184.38;;;9.14;100.00
51245;BME280;37840;47.562;18.738;2024-03-02T12:07:23;99184.47;;;9.12;100.00
51245;BME280;37840;47.562;18.738;2024-03-02T12:09:59;99177.00;;;9.17;100.00
51245;BME280;37840;47.562;18.738;2024-03-02T12:12:25;99174.25;;;9.19;100.00
51245;BME280;37840;47.562;18.738;2024-03-02T12:14:53;99180.41;;;9.19;100.00
51245;BME280;37840;47.562;18.738;2024-03-02T12:17:22;99178.59;;;9.20;100.00
51245;BME280;37840;47.562;18.738;2024-03-02T12:19:48;99170.31;;;9.25;100.00
51245;BME280;37840;47.562;18.738;2024-03-02T12:22:15;99167.19;;;9.31;100.00
51245;BME280;37840;47.562;18.738;2024-03-02T12:24:41;99176.09;;;9.30;100.00
51245;BME280;37840;47.562;18.738;2024-03-02T12:27:11;99176.09;;;9.30;100.00
51245;BME280;37840;47.562;18.738;2024-03-02T12:29:38;99168.97;;;9.30;100.00
51245;BME280;37840;47.562;18.738;2024-03-02T12:32:05;99164.56;;;9.31;100.00
51245;BME280;37840;47.562;18.738;2024-03-02T12:34:31;99175.03;;;9.32;100.00
51245;BME280;37840;47.562;18.738;2024-03-02T12:36:58;99167.94;;;9.33;100.00
51245;BME280;37840;47.562;18.738;2024-03-02T12:39:23;99172.25;;;9.34;100.00
51245;BME280;37840;47.562;18.738;2024-03-02T12:41:50;99171.28;;;9.35;100.00
51245;BME280;37840;47.562;18.738;2024-03-02T12:44:17;99172.50;;;9.31;100.00
51245;BME280;37840;47.562;18.738;2024-03-02T12:46:44;99175.03;;;9.32;100.00
51245;BME280;37840;47.562;18.738;2024-03-02T12:49:11;99172.38;;;9.32;100.00
51245;BME280;37840;47.562;18.738;2024-03-02T12:51:41;99180.22;;;9.34;100.00
51245;BME280;37840;47.562;18.738;2024-03-02T12:54:10;99172.72;;;9.28;100.00
51245;BME280;37840;47.562;18.738;2024-03-02T12:56:37;99171.44;;;9.33;100.00
51245;BME280;37840;47.562;18.738;2024-03-02T12:59:04;99174.06;;;9.33;100.00
51245;BME280;37840;47.562;18.738;2024-03-02T13:01:30;99171.19;;;9.36;100.00
51245;BME280;37840;47.562;18.738;2024-03-02T13:03:58;99171.81;;;9.40;100.00